Time;durP1;ratioP1;P1;durP2;ratioP2;P2;SDS_P1;SDS_P2;PMS_P1;PMS_P2;Temp;Humidity;BMP_temperature;BMP_pressure;BME280_temperature;BME280_humidity;BME280_pressure;Samples;Min_cycle;Max_cycle;Signal;HPM_P1;HPM_P2
2020/12/28 00:02:16;;;;;;;0.70;0.70;;;;;;;;;;5095201;27;20965;-57
2020/12/28 00:04:42;;;;;;;0.93;0.70;;;;;;;;;;5120583;27;20292;-58
2020/12/28 00:07:09;;;;;;;1.63;0.70;;;;;;;;;;5093293;28;20442;-58
2020/12/28 00:09:35;;;;;;;1.10;0.90;;;;;;;;;;5092401;28;20176;-58
2020/12/28 00:12:01;;;;;;;0.60;0.60;;;;;;;;;;5103510;28;20413;-58
2020/12/28 00:14:28;;;;;;;0.73;0.70;;;;;;;;;;5101710;28;20436;-58
2020/12/28 00:16:54;;;;;;;0.60;0.60;;;;;;;;;;5111148;28;20451;-58
2020/12/28 00:19:20;;;;;;;2.03;0.87;;;;;;;;;;5103944;28;20425;-58
2020/12/28 00:21:46;;;;;;;0.80;0.80;;;;;;;;;;5109621;28;20475;-57
2020/12/28 00:24:12;;;;;;;0.90;0.90;;;;;;;;;;5104824;27;20452;-58
2020/12/28 00:26:39;;;;;;;0.57;0.57;;;;;;;;;;5105684;27;20184;-58
2020/12/28 00:29:05;;;;;;;0.50;0.50;;;;;;;;;;5107653;28;20425;-57
2020/12/28 00:31:32;;;;;;;0.60;0.60;;;;;;;;;;5108019;28;20477;-58
2020/12/28 00:33:58;;;;;;;0.80;0.80;;;;;;;;;;5099811;27;20214;-58
2020/12/28 00:36:24;;;;;;;0.50;0.50;;;;;;;;;;5110994;28;20425;-58
2020/12/28 00:38:50;;;;;;;0.77;0.70;;;;;;;;;;5101016;28;20425;-58
2020/12/28 00:41:16;;;;;;;0.60;0.57;;;;;;;;;;5097307;28;20184;-58
2020/12/28 00:43:43;;;;;;;0.40;0.40;;;;;;;;;;5101098;27;20918;-60
2020/12/28 00:46:10;;;;;;;2.40;0.70;;;;;;;;;;5111817;28;20421;-58
2020/12/28 00:48:36;;;;;;;0.60;0.60;;;;;;;;;;5097949;28;20456;-57
2020/12/28 00:51:03;;;;;;;0.70;0.60;;;;;;;;;;5105168;28;20510;-57
2020/12/28 00:53:29;;;;;;;0.63;0.60;;;;;;;;;;5091730;28;20429;-58
2020/12/28 00:55:55;;;;;;;0.50;0.50;;;;;;;;;;5093368;28;20426;-57
2020/12/28 00:58:21;;;;;;;1.03;0.70;;;;;;;;;;5095508;28;20545;-58
2020/12/28 01:00:47;;;;;;;0.87;0.70;;;;;;;;;;5096213;28;20198;-58
2020/12/28 01:03:19;;;;;;;0.60;0.53;;;;;;;;;;5087629;28;20540;-57
2020/12/28 01:05:46;;;;;;;0.67;0.67;;;;;;;;;;5090649;28;20217;-56
2020/12/28 01:08:12;;;;;;;1.10;0.60;;;;;;;;;;5088460;28;20540;-56
2020/12/28 01:10:42;;;;;;;0.80;0.60;;;;;;;;;;5082268;28;20424;-59
2020/12/28 01:13:08;;;;;;;0.70;0.63;;;;;;;;;;5087151;28;20822;-57
2020/12/28 01:15:34;;;;;;;0.50;0.50;;;;;;;;;;5075009;28;20599;-56
2020/12/28 01:18:00;;;;;;;0.60;0.60;;;;;;;;;;5100329;28;20758;-55
2020/12/28 01:20:26;;;;;;;0.77;0.63;;;;;;;;;;5063412;28;20479;-56
2020/12/28 01:22:52;;;;;;;0.67;0.60;;;;;;;;;;5079822;28;20240;-57
2020/12/28 01:25:18;;;;;;;0.70;0.70;;;;;;;;;;5068193;28;20683;-58
2020/12/28 01:27:44;;;;;;;0.50;0.50;;;;;;;;;;5070745;28;20423;-57
2020/12/28 01:30:10;;;;;;;1.03;0.63;;;;;;;;;;5079509;28;20511;-56
2020/12/28 01:32:36;;;;;;;1.13;0.70;;;;;;;;;;5074442;28;20185;-56
2020/12/28 01:35:02;;;;;;;1.00;0.90;;;;;;;;;;5071226;28;20181;-57
2020/12/28 01:37:28;;;;;;;0.50;0.50;;;;;;;;;;5067898;28;20521;-57
2020/12/28 01:39:54;;;;;;;0.50;0.50;;;;;;;;;;5070317;28;20423;-56
2020/12/28 01:42:20;;;;;;;0.50;0.50;;;;;;;;;;5072230;28;20508;-56
2020/12/28 01:44:46;;;;;;;0.50;0.47;;;;;;;;;;5075492;28;20420;-56
2020/12/28 01:47:12;;;;;;;0.67;0.57;;;;;;;;;;5085216;28;20526;-56
2020/12/28 01:49:39;;;;;;;4.20;0.70;;;;;;;;;;5074000;28;20422;-57
2020/12/28 01:52:05;;;;;;;0.97;0.73;;;;;;;;;;5086053;28;20425;-57
2020/12/28 01:54:32;;;;;;;0.50;0.43;;;;;;;;;;5071088;28;20450;-56
2020/12/28 01:56:58;;;;;;;1.37;0.70;;;;;;;;;;5070576;28;21046;-56
2020/12/28 01:59:25;;;;;;;0.50;0.50;;;;;;;;;;5071331;28;20477;-57
2020/12/28 02:01:55;;;;;;;1.93;0.57;;;;;;;;;;5076076;28;20467;-57
2020/12/28 02:04:21;;;;;;;0.40;0.40;;;;;;;;;;5076505;28;20428;-57
2020/12/28 02:06:48;;;;;;;0.50;0.50;;;;;;;;;;5072038;28;21115;-56
2020/12/28 02:09:14;;;;;;;0.50;0.50;;;;;;;;;;5080622;28;20453;-57
2020/12/28 02:11:40;;;;;;;0.57;0.57;;;;;;;;;;5068739;28;20515;-56
2020/12/28 02:14:06;;;;;;;0.60;0.60;;;;;;;;;;5056515;28;20428;-56
2020/12/28 02:16:33;;;;;;;0.50;0.50;;;;;;;;;;5072602;28;20474;-57
2020/12/28 02:19:00;;;;;;;0.60;0.57;;;;;;;;;;5069899;28;20821;-57
2020/12/28 02:21:26;;;;;;;0.67;0.67;;;;;;;;;;5073176;28;20932;-56
2020/12/28 02:23:53;;;;;;;0.50;0.50;;;;;;;;;;5056917;28;20534;-58
2020/12/28 02:26:19;;;;;;;0.53;0.50;;;;;;;;;;5054577;28;20441;-57
2020/12/28 02:28:45;;;;;;;0.73;0.60;;;;;;;;;;5062023;28;20424;-56
2020/12/28 02:31:11;;;;;;;0.40;0.40;;;;;;;;;;5069161;28;20480;-56
2020/12/28 02:33:40;;;;;;;0.50;0.50;;;;;;;;;;5066899;28;20650;-57
2020/12/28 02:36:08;;;;;;;1.30;0.63;;;;;;;;;;5063851;28;20256;-56
2020/12/28 02:38:34;;;;;;;0.73;0.73;;;;;;;;;;5066930;28;20917;-57
2020/12/28 02:41:00;;;;;;;0.57;0.57;;;;;;;;;;5059216;28;20428;-56
2020/12/28 02:43:26;;;;;;;0.53;0.53;;;;;;;;;;5052965;28;20181;-57
2020/12/28 02:45:52;;;;;;;0.40;0.40;;;;;;;;;;5048852;28;20254;-57
2020/12/28 02:48:18;;;;;;;0.50;0.50;;;;;;;;;;5058858;28;20181;-56
2020/12/28 02:50:44;;;;;;;1.10;0.70;;;;;;;;;;5068469;28;20176;-57
2020/12/28 02:53:10;;;;;;;0.60;0.60;;;;;;;;;;5059221;28;20199;-57
2020/12/28 02:55:36;;;;;;;0.43;0.43;;;;;;;;;;5067896;28;20545;-57
2020/12/28 02:58:02;;;;;;;0.50;0.50;;;;;;;;;;5052870;28;20189;-56
2020/12/28 03:00:28;;;;;;;0.67;0.67;;;;;;;;;;5057077;28;20707;-56
2020/12/28 03:02:54;;;;;;;1.07;0.50;;;;;;;;;;5053323;28;20252;-56
2020/12/28 03:05:20;;;;;;;0.53;0.53;;;;;;;;;;5062869;28;20516;-56
2020/12/28 03:07:46;;;;;;;0.53;0.53;;;;;;;;;;5053155;28;20184;-56
2020/12/28 03:10:12;;;;;;;0.63;0.60;;;;;;;;;;5059396;28;20435;-57
2020/12/28 03:12:38;;;;;;;0.70;0.70;;;;;;;;;;5036892;28;20176;-56
2020/12/28 03:15:04;;;;;;;2.10;0.70;;;;;;;;;;5070293;28;20449;-57
2020/12/28 03:17:30;;;;;;;1.07;0.67;;;;;;;;;;5071796;28;20803;-57
2020/12/28 03:19:56;;;;;;;1.10;0.70;;;;;;;;;;5070001;28;20476;-56
2020/12/28 03:22:22;;;;;;;0.70;0.60;;;;;;;;;;5057337;28;20197;-56
2020/12/28 03:24:48;;;;;;;0.63;0.63;;;;;;;;;;5059261;28;20207;-56
2020/12/28 03:27:14;;;;;;;0.40;0.40;;;;;;;;;;5069584;28;20458;-57
2020/12/28 03:29:40;;;;;;;0.43;0.43;;;;;;;;;;5069198;28;20195;-57
2020/12/28 03:32:06;;;;;;;0.40;0.40;;;;;;;;;;5044130;28;20189;-56
2020/12/28 03:34:32;;;;;;;0.90;0.60;;;;;;;;;;5053000;28;20181;-56
2020/12/28 03:36:58;;;;;;;0.33;0.33;;;;;;;;;;5066747;28;20536;-56
2020/12/28 03:39:24;;;;;;;0.50;0.50;;;;;;;;;;5065248;28;20185;-57
2020/12/28 03:41:50;;;;;;;0.33;0.33;;;;;;;;;;5069672;28;20458;-58
2020/12/28 03:44:16;;;;;;;0.70;0.60;;;;;;;;;;5055798;28;20422;-57
2020/12/28 03:46:42;;;;;;;0.40;0.40;;;;;;;;;;5057582;28;20551;-56
2020/12/28 03:49:08;;;;;;;0.50;0.50;;;;;;;;;;5052201;28;20533;-57
2020/12/28 03:51:34;;;;;;;0.50;0.50;;;;;;;;;;5048941;28;20433;-57
2020/12/28 03:54:00;;;;;;;0.83;0.70;;;;;;;;;;5055672;28;20216;-59
2020/12/28 03:56:26;;;;;;;0.60;0.60;;;;;;;;;;5060875;28;20678;-56
2020/12/28 03:58:52;;;;;;;0.57;0.53;;;;;;;;;;5060323;28;20785;-56
2020/12/28 04:01:18;;;;;;;0.60;0.57;;;;;;;;;;5053201;28;20474;-57
2020/12/28 04:03:44;;;;;;;1.27;0.77;;;;;;;;;;5063665;28;20238;-57
2020/12/28 04:06:10;;;;;;;0.53;0.53;;;;;;;;;;5043152;28;20428;-58
2020/12/28 04:08:36;;;;;;;0.30;0.30;;;;;;;;;;5051183;28;20231;-56
2020/12/28 04:11:02;;;;;;;1.40;0.63;;;;;;;;;;5066654;28;20897;-56
2020/12/28 04:13:28;;;;;;;1.60;0.50;;;;;;;;;;5060217;28;20177;-56
2020/12/28 04:15:54;;;;;;;0.80;0.47;;;;;;;;;;5068422;28;20437;-57
2020/12/28 04:18:20;;;;;;;0.60;0.60;;;;;;;;;;5051657;28;20185;-59
2020/12/28 04:20:46;;;;;;;0.73;0.73;;;;;;;;;;5063877;28;20222;-57
2020/12/28 04:23:12;;;;;;;0.50;0.50;;;;;;;;;;5070930;28;20279;-56
2020/12/28 04:25:38;;;;;;;0.97;0.90;;;;;;;;;;5068256;28;20488;-57
2020/12/28 04:28:04;;;;;;;0.60;0.60;;;;;;;;;;5051386;28;20177;-56
2020/12/28 04:30:30;;;;;;;0.50;0.50;;;;;;;;;;5061140;28;20205;-59
2020/12/28 04:32:56;;;;;;;0.63;0.60;;;;;;;;;;5051201;28;20430;-57
2020/12/28 04:35:22;;;;;;;0.60;0.60;;;;;;;;;;5060148;28;20184;-57
2020/12/28 04:37:48;;;;;;;0.93;0.70;;;;;;;;;;5050678;28;20408;-56
2020/12/28 04:40:14;;;;;;;0.40;0.40;;;;;;;;;;5062870;28;20188;-56
2020/12/28 04:42:41;;;;;;;0.47;0.47;;;;;;;;;;5069760;28;20947;-57
2020/12/28 04:45:08;;;;;;;0.47;0.47;;;;;;;;;;5069159;28;20302;-57
2020/12/28 04:47:34;;;;;;;0.40;0.40;;;;;;;;;;5051705;28;20426;-58
2020/12/28 04:50:00;;;;;;;0.80;0.63;;;;;;;;;;5058986;28;20970;-57
2020/12/28 04:52:27;;;;;;;0.77;0.63;;;;;;;;;;5050964;28;20443;-57
2020/12/28 04:54:53;;;;;;;0.50;0.50;;;;;;;;;;5058599;28;20799;-57
2020/12/28 04:57:19;;;;;;;0.47;0.43;;;;;;;;;;5053652;28;20449;-55
2020/12/28 04:59:45;;;;;;;0.70;0.67;;;;;;;;;;5059425;28;20195;-56
2020/12/28 05:02:11;;;;;;;0.70;0.70;;;;;;;;;;5036822;28;20463;-57
2020/12/28 05:04:37;;;;;;;0.80;0.80;;;;;;;;;;5057102;28;20967;-56
2020/12/28 05:07:07;;;;;;;0.40;0.40;;;;;;;;;;5065890;28;20181;-58
2020/12/28 05:09:34;;;;;;;0.63;0.63;;;;;;;;;;5056230;28;20457;-57
2020/12/28 05:12:01;;;;;;;0.70;0.70;;;;;;;;;;5053679;28;20427;-57
2020/12/28 05:14:28;;;;;;;0.83;0.80;;;;;;;;;;5051594;28;20427;-57
2020/12/28 05:16:58;;;;;;;1.27;0.80;;;;;;;;;;5036067;28;20814;-56
2020/12/28 05:19:24;;;;;;;1.43;0.80;;;;;;;;;;5080220;28;20565;-56
2020/12/28 05:21:50;;;;;;;1.17;0.70;;;;;;;;;;5053995;28;20550;-58
2020/12/28 05:24:16;;;;;;;0.60;0.60;;;;;;;;;;5053389;28;20451;-59
2020/12/28 05:26:43;;;;;;;0.77;0.77;;;;;;;;;;5061242;28;20426;-56
2020/12/28 05:29:11;;;;;;;1.10;0.47;;;;;;;;;;5056329;28;20438;-57
2020/12/28 05:31:38;;;;;;;0.50;0.50;;;;;;;;;;5051832;28;20976;-55
2020/12/28 05:34:05;;;;;;;0.80;0.80;;;;;;;;;;5052016;28;20407;-57
2020/12/28 05:36:31;;;;;;;0.83;0.83;;;;;;;;;;5052513;28;20438;-57
2020/12/28 05:38:58;;;;;;;0.83;0.80;;;;;;;;;;5069554;28;20430;-56
2020/12/28 05:41:27;;;;;;;1.57;1.17;;;;;;;;;;5055729;28;20273;-56
2020/12/28 05:43:54;;;;;;;0.97;0.80;;;;;;;;;;5050248;28;20264;-57
2020/12/28 05:46:23;;;;;;;0.60;0.60;;;;;;;;;;5057055;28;20913;-56
2020/12/28 05:48:54;;;;;;;1.13;1.03;;;;;;;;;;5058827;28;20787;-56
2020/12/28 05:51:20;;;;;;;1.07;0.60;;;;;;;;;;5067585;28;20425;-56
2020/12/28 05:53:47;;;;;;;1.60;0.80;;;;;;;;;;5073846;28;20407;-58
2020/12/28 05:56:14;;;;;;;1.03;0.93;;;;;;;;;;5072861;28;20464;-56
2020/12/28 05:58:44;;;;;;;1.10;1.00;;;;;;;;;;5066251;28;20963;-57
2020/12/28 06:01:11;;;;;;;1.00;0.90;;;;;;;;;;5063929;28;20443;-58
2020/12/28 06:03:41;;;;;;;0.90;0.50;;;;;;;;;;5067003;28;20769;-57
2020/12/28 06:06:07;;;;;;;0.80;0.80;;;;;;;;;;5060279;28;20412;-56
2020/12/28 06:08:33;;;;;;;1.10;0.90;;;;;;;;;;5058341;28;20423;-57
2020/12/28 06:11:03;;;;;;;0.87;0.83;;;;;;;;;;5067793;28;20453;-59
2020/12/28 06:13:29;;;;;;;1.53;1.20;;;;;;;;;;5048086;28;20209;-57
2020/12/28 06:16:02;;;;;;;1.30;1.20;;;;;;;;;;5053967;28;20458;-58
2020/12/28 06:18:29;;;;;;;0.80;0.80;;;;;;;;;;5053785;28;20422;-56
2020/12/28 06:20:55;;;;;;;0.70;0.70;;;;;;;;;;5054753;28;20454;-57
2020/12/28 06:23:24;;;;;;;1.10;0.90;;;;;;;;;;5071063;28;20454;-57
2020/12/28 06:25:54;;;;;;;1.07;0.90;;;;;;;;;;5060056;28;20459;-57
2020/12/28 06:28:26;;;;;;;1.27;1.00;;;;;;;;;;5065846;28;20521;-57
2020/12/28 06:30:52;;;;;;;1.00;0.90;;;;;;;;;;5066742;28;20498;-57
2020/12/28 06:33:19;;;;;;;0.97;0.80;;;;;;;;;;5040167;28;20435;-58
2020/12/28 06:35:45;;;;;;;1.07;0.97;;;;;;;;;;5052282;28;21133;-57
2020/12/28 06:38:11;;;;;;;0.83;0.80;;;;;;;;;;5070395;28;20472;-57
2020/12/28 06:40:41;;;;;;;2.20;0.93;;;;;;;;;;5069633;28;20434;-57
2020/12/28 06:43:10;;;;;;;1.00;1.00;;;;;;;;;;5055868;28;20454;-56
2020/12/28 06:45:37;;;;;;;1.03;0.90;;;;;;;;;;5072095;28;21014;-56
2020/12/28 06:48:03;;;;;;;1.33;1.10;;;;;;;;;;5061820;28;20431;-57
2020/12/28 06:50:29;;;;;;;0.83;0.83;;;;;;;;;;5058789;28;20431;-57
2020/12/28 06:52:55;;;;;;;0.90;0.90;;;;;;;;;;5053376;28;20421;-57
2020/12/28 06:55:25;;;;;;;1.47;1.10;;;;;;;;;;5053028;28;20395;-57
2020/12/28 06:57:51;;;;;;;1.20;1.10;;;;;;;;;;5054611;28;20200;-57
2020/12/28 07:00:18;;;;;;;1.43;1.33;;;;;;;;;;5071975;28;20422;-57
2020/12/28 07:02:51;;;;;;;1.10;1.00;;;;;;;;;;5064991;28;20459;-56
2020/12/28 07:05:23;;;;;;;2.27;0.93;;;;;;;;;;5052842;28;20426;-57
2020/12/28 07:07:50;;;;;;;5.93;1.10;;;;;;;;;;5066272;28;21244;-57
2020/12/28 07:10:20;;;;;;;1.20;1.10;;;;;;;;;;5066629;28;20510;-57
2020/12/28 07:12:47;;;;;;;1.70;1.23;;;;;;;;;;5052964;28;20895;-56
2020/12/28 07:15:13;;;;;;;1.10;1.00;;;;;;;;;;5060099;28;20196;-57
2020/12/28 07:17:39;;;;;;;1.60;1.20;;;;;;;;;;5064681;28;20434;-56
2020/12/28 07:20:07;;;;;;;1.57;1.17;;;;;;;;;;5052624;28;20427;-57
2020/12/28 07:22:36;;;;;;;1.40;1.00;;;;;;;;;;5052450;28;20491;-57
2020/12/28 07:25:03;;;;;;;1.10;1.00;;;;;;;;;;5039017;28;20426;-57
2020/12/28 07:27:29;;;;;;;1.17;0.87;;;;;;;;;;5067727;28;20407;-57
2020/12/28 07:29:55;;;;;;;2.00;1.20;;;;;;;;;;5043973;28;20204;-57
2020/12/28 07:32:22;;;;;;;0.93;0.90;;;;;;;;;;5066228;28;20190;-57
2020/12/28 07:34:54;;;;;;;1.30;1.20;;;;;;;;;;5056586;28;20422;-57
2020/12/28 07:37:21;;;;;;;1.07;1.00;;;;;;;;;;5071983;28;20419;-57
2020/12/28 07:39:48;;;;;;;2.63;1.10;;;;;;;;;;5061952;28;21189;-58
2020/12/28 07:42:20;;;;;;;1.57;1.13;;;;;;;;;;5055183;28;20808;-57
2020/12/28 07:44:52;;;;;;;1.10;1.00;;;;;;;;;;5055047;28;20443;-57
2020/12/28 07:47:19;;;;;;;1.40;1.30;;;;;;;;;;5052247;28;20412;-56
2020/12/28 07:49:46;;;;;;;1.80;1.30;;;;;;;;;;5052611;28;20499;-59
2020/12/28 07:52:13;;;;;;;1.23;0.97;;;;;;;;;;5056790;28;20418;-58
2020/12/28 07:54:48;;;;;;;1.57;1.20;;;;;;;;;;5069830;28;20217;-58
2020/12/28 07:57:19;;;;;;;2.03;1.10;;;;;;;;;;5067928;28;20817;-56
2020/12/28 07:59:54;;;;;;;0.90;0.90;;;;;;;;;;5053693;28;20514;-57
2020/12/28 08:02:36;;;;;;;1.10;1.00;;;;;;;;;;5069489;28;20470;-60
2020/12/28 08:05:03;;;;;;;1.23;1.13;;;;;;;;;;5071832;28;20399;-57
2020/12/28 08:07:35;;;;;;;1.50;1.23;;;;;;;;;;5067409;28;20522;-56
2020/12/28 08:10:01;;;;;;;1.10;1.00;;;;;;;;;;5060324;28;21020;-60
2020/12/28 08:12:30;;;;;;;1.17;0.90;;;;;;;;;;5051099;28;20746;-57
2020/12/28 08:14:56;;;;;;;1.33;1.00;;;;;;;;;;5059399;28;20472;-58
2020/12/28 08:17:26;;;;;;;1.17;1.03;;;;;;;;;;5071115;28;20234;-58
2020/12/28 08:19:52;;;;;;;1.13;1.03;;;;;;;;;;5071786;28;20407;-57
2020/12/28 08:22:22;;;;;;;1.03;1.00;;;;;;;;;;5071418;28;20500;-57
2020/12/28 08:25:07;;;;;;;1.20;0.97;;;;;;;;;;5067489;28;20422;-57
2020/12/28 08:27:33;;;;;;;1.20;0.90;;;;;;;;;;5061400;28;20443;-57
2020/12/28 08:30:00;;;;;;;2.23;1.17;;;;;;;;;;5056013;28;20478;-57
2020/12/28 08:32:30;;;;;;;1.10;1.00;;;;;;;;;;5051597;28;20403;-58
2020/12/28 08:34:58;;;;;;;1.20;1.10;;;;;;;;;;5039951;28;20457;-58
2020/12/28 08:37:24;;;;;;;1.97;1.03;;;;;;;;;;5034644;28;20473;-57
2020/12/28 08:39:50;;;;;;;1.07;0.93;;;;;;;;;;5059715;28;20423;-56
2020/12/28 08:42:25;;;;;;;1.40;1.07;;;;;;;;;;5063186;28;20515;-59
2020/12/28 08:44:51;;;;;;;1.30;1.00;;;;;;;;;;5063925;28;20437;-57
2020/12/28 08:47:17;;;;;;;1.20;1.10;;;;;;;;;;5071303;28;20405;-58
2020/12/28 08:49:46;;;;;;;1.23;1.03;;;;;;;;;;5066898;28;20439;-57
2020/12/28 08:52:19;;;;;;;1.20;1.10;;;;;;;;;;5051879;28;20210;-57
2020/12/28 08:54:59;;;;;;;1.13;1.03;;;;;;;;;;5051090;28;20477;-56
2020/12/28 08:57:25;;;;;;;1.40;1.30;;;;;;;;;;5060907;28;20230;-56
2020/12/28 08:59:52;;;;;;;2.60;1.10;;;;;;;;;;5066425;28;20479;-57
2020/12/28 09:02:19;;;;;;;1.57;1.10;;;;;;;;;;5070353;28;21057;-57
2020/12/28 09:04:45;;;;;;;2.03;1.23;;;;;;;;;;5062575;28;20419;-56
2020/12/28 09:07:11;;;;;;;1.60;1.20;;;;;;;;;;5044713;28;20196;-58
2020/12/28 09:09:41;;;;;;;1.80;1.40;;;;;;;;;;5054322;28;20418;-58
2020/12/28 09:12:08;;;;;;;1.17;1.00;;;;;;;;;;5068409;28;20426;-60
2020/12/28 09:14:37;;;;;;;1.20;1.10;;;;;;;;;;5062839;28;20433;-58
2020/12/28 09:17:04;;;;;;;1.20;1.10;;;;;;;;;;5069930;28;20592;-56
2020/12/28 09:19:33;;;;;;;1.43;1.00;;;;;;;;;;5065622;28;20435;-57
2020/12/28 09:22:00;;;;;;;1.10;1.00;;;;;;;;;;5053878;28;20459;-57
2020/12/28 09:24:26;;;;;;;0.80;0.80;;;;;;;;;;5059016;28;20419;-58
2020/12/28 09:26:55;;;;;;;1.53;1.00;;;;;;;;;;5065434;28;20173;-58
2020/12/28 09:29:21;;;;;;;1.10;1.00;;;;;;;;;;5065499;28;20554;-58
2020/12/28 09:31:47;;;;;;;1.63;1.20;;;;;;;;;;5072899;28;20682;-59
2020/12/28 09:34:13;;;;;;;2.43;0.90;;;;;;;;;;5073468;28;20438;-58
2020/12/28 09:36:39;;;;;;;1.07;0.90;;;;;;;;;;5061412;28;20189;-58
2020/12/28 09:39:05;;;;;;;1.70;0.97;;;;;;;;;;5054739;28;20203;-59
2020/12/28 09:41:31;;;;;;;1.27;0.80;;;;;;;;;;5069815;28;20419;-59
2020/12/28 09:43:57;;;;;;;1.20;1.10;;;;;;;;;;5071977;28;20322;-60
2020/12/28 09:46:23;;;;;;;1.30;1.03;;;;;;;;;;5074434;28;20937;-58
2020/12/28 09:48:50;;;;;;;1.07;0.97;;;;;;;;;;5074115;28;20211;-58
2020/12/28 09:51:17;;;;;;;0.93;0.80;;;;;;;;;;5064918;28;20582;-58
2020/12/28 09:53:43;;;;;;;1.23;1.00;;;;;;;;;;5055842;28;20207;-58
2020/12/28 09:56:10;;;;;;;2.27;1.07;;;;;;;;;;5054537;28;20224;-58
2020/12/28 09:58:36;;;;;;;1.63;1.00;;;;;;;;;;5054865;28;20601;-60
2020/12/28 10:01:03;;;;;;;1.00;0.90;;;;;;;;;;5046200;28;20192;-58
2020/12/28 10:03:29;;;;;;;0.80;0.80;;;;;;;;;;5069022;28;20528;-58
2020/12/28 10:05:55;;;;;;;1.30;1.20;;;;;;;;;;5037182;28;20216;-57
2020/12/28 10:08:22;;;;;;;4.53;1.00;;;;;;;;;;5075249;28;20180;-58
2020/12/28 10:10:48;;;;;;;3.33;1.00;;;;;;;;;;5073735;28;20165;-56
2020/12/28 10:13:14;;;;;;;1.00;1.00;;;;;;;;;;5063188;28;20463;-57
2020/12/28 10:15:40;;;;;;;1.60;1.00;;;;;;;;;;5093852;28;20249;-57
2020/12/28 10:18:11;;;;;;;1.33;0.77;;;;;;;;;;5080820;28;20188;-57
2020/12/28 10:20:37;;;;;;;1.40;0.97;;;;;;;;;;5084750;28;20176;-58
2020/12/28 10:23:03;;;;;;;1.50;1.07;;;;;;;;;;5053659;28;20239;-58
2020/12/28 10:25:29;;;;;;;1.97;0.70;;;;;;;;;;5055566;28;20173;-56
2020/12/28 10:27:55;;;;;;;1.83;0.83;;;;;;;;;;5054048;28;20693;-58
2020/12/28 10:30:21;;;;;;;1.47;0.90;;;;;;;;;;5063376;28;20208;-58
2020/12/28 10:32:47;;;;;;;0.90;0.90;;;;;;;;;;5058950;28;20188;-58
2020/12/28 10:35:13;;;;;;;1.77;0.80;;;;;;;;;;5065720;28;20202;-58
2020/12/28 10:37:39;;;;;;;0.80;0.63;;;;;;;;;;5040281;28;20209;-58
2020/12/28 10:40:06;;;;;;;0.73;0.67;;;;;;;;;;5060765;28;20243;-58
2020/12/28 10:42:33;;;;;;;0.80;0.80;;;;;;;;;;5060524;28;20266;-57
2020/12/28 10:44:59;;;;;;;1.40;0.93;;;;;;;;;;5062631;28;20211;-58
2020/12/28 10:47:25;;;;;;;0.70;0.70;;;;;;;;;;5061811;28;20610;-58
2020/12/28 10:49:51;;;;;;;1.30;0.63;;;;;;;;;;5046547;28;20211;-58
2020/12/28 10:52:17;;;;;;;0.60;0.60;;;;;;;;;;5054278;28;20268;-56
2020/12/28 10:54:43;;;;;;;0.50;0.50;;;;;;;;;;5066274;28;20639;-58
2020/12/28 10:57:09;;;;;;;0.70;0.60;;;;;;;;;;5063530;28;20185;-58
2020/12/28 10:59:35;;;;;;;3.07;1.00;;;;;;;;;;5056746;28;20203;-59
2020/12/28 11:02:01;;;;;;;3.60;0.77;;;;;;;;;;5061565;28;20311;-58
2020/12/28 11:04:27;;;;;;;1.30;0.60;;;;;;;;;;5058341;28;20208;-59
2020/12/28 11:06:53;;;;;;;0.80;0.77;;;;;;;;;;5061570;28;20169;-58
2020/12/28 11:09:19;;;;;;;0.60;0.60;;;;;;;;;;5051594;28;20235;-57
2020/12/28 11:11:51;;;;;;;1.07;0.83;;;;;;;;;;5043808;28;20211;-58
2020/12/28 11:14:18;;;;;;;1.03;0.90;;;;;;;;;;5076750;28;20184;-58
2020/12/28 11:16:44;;;;;;;0.80;0.80;;;;;;;;;;5059957;28;20185;-57
2020/12/28 11:19:10;;;;;;;2.20;0.87;;;;;;;;;;5056667;28;20185;-58
2020/12/28 11:21:36;;;;;;;0.73;0.73;;;;;;;;;;5057747;28;20177;-57
2020/12/28 11:24:02;;;;;;;1.43;0.67;;;;;;;;;;5052042;28;20184;-58
2020/12/28 11:26:29;;;;;;;0.70;0.60;;;;;;;;;;5064104;28;20624;-58
2020/12/28 11:28:56;;;;;;;1.40;0.80;;;;;;;;;;5062073;28;20180;-58
2020/12/28 11:31:22;;;;;;;0.73;0.73;;;;;;;;;;5060854;28;20205;-58
2020/12/28 11:33:48;;;;;;;1.73;0.70;;;;;;;;;;5062931;28;20187;-59
2020/12/28 11:36:14;;;;;;;0.70;0.70;;;;;;;;;;5057655;28;20697;-57
2020/12/28 11:38:41;;;;;;;1.00;0.90;;;;;;;;;;5070553;28;20172;-58
2020/12/28 11:41:08;;;;;;;0.83;0.60;;;;;;;;;;5058708;28;20178;-57
2020/12/28 11:43:34;;;;;;;1.60;1.03;;;;;;;;;;5063805;28;20558;-57
2020/12/28 11:46:00;;;;;;;2.07;0.83;;;;;;;;;;5051748;28;20247;-60
2020/12/28 11:48:26;;;;;;;1.07;0.97;;;;;;;;;;5065265;28;20231;-58
2020/12/28 11:50:52;;;;;;;0.60;0.60;;;;;;;;;;5062045;28;20533;-58
2020/12/28 11:53:18;;;;;;;3.83;0.90;;;;;;;;;;5057139;28;20675;-58
2020/12/28 11:58:30;;;;;;;2.50;0.83;;;;;;;;;;5060183;28;20260;-57
2020/12/28 12:00:56;;;;;;;1.17;0.50;;;;;;;;;;5054322;28;20584;-58
2020/12/28 12:03:23;;;;;;;2.00;1.07;;;;;;;;;;5058649;28;20617;-58
2020/12/28 12:05:49;;;;;;;2.97;0.70;;;;;;;;;;5061222;28;20192;-58
2020/12/28 12:08:15;;;;;;;0.50;0.50;;;;;;;;;;5062931;28;20587;-60
2020/12/28 12:10:41;;;;;;;0.80;0.80;;;;;;;;;;5071126;28;20635;-57
2020/12/28 12:13:07;;;;;;;0.83;0.60;;;;;;;;;;5067227;28;20188;-57
2020/12/28 12:15:33;;;;;;;1.27;0.80;;;;;;;;;;5032978;28;20184;-58
2020/12/28 12:17:59;;;;;;;1.10;0.80;;;;;;;;;;5059398;28;20184;-59
2020/12/28 12:20:25;;;;;;;2.20;1.20;;;;;;;;;;5070033;28;20553;-59
2020/12/28 12:22:51;;;;;;;1.17;0.80;;;;;;;;;;5066977;28;20208;-59
2020/12/28 12:25:17;;;;;;;3.50;1.23;;;;;;;;;;5063881;28;20205;-59
2020/12/28 12:27:43;;;;;;;0.63;0.60;;;;;;;;;;5059679;28;20195;-58
2020/12/28 12:30:09;;;;;;;3.10;0.80;;;;;;;;;;5064174;28;20690;-59
2020/12/28 12:32:35;;;;;;;1.03;0.70;;;;;;;;;;5054354;28;20181;-60
2020/12/28 12:35:01;;;;;;;0.80;0.70;;;;;;;;;;5059402;28;20183;-58
2020/12/28 12:37:27;;;;;;;1.60;0.57;;;;;;;;;;5063307;28;20184;-58
2020/12/28 12:39:53;;;;;;;1.67;0.90;;;;;;;;;;5061626;28;20192;-59
2020/12/28 12:42:19;;;;;;;1.23;0.80;;;;;;;;;;5070270;28;20220;-59
2020/12/28 12:44:45;;;;;;;1.07;0.60;;;;;;;;;;5034420;28;20191;-62
2020/12/28 12:47:14;;;;;;;3.70;0.80;;;;;;;;;;5055010;28;20185;-58
2020/12/28 12:49:40;;;;;;;2.80;1.27;;;;;;;;;;5064796;28;20188;-61
2020/12/28 12:52:14;;;;;;;1.07;0.90;;;;;;;;;;5050556;28;20177;-60
2020/12/28 12:54:40;;;;;;;1.03;0.90;;;;;;;;;;5055607;28;20263;-59
2020/12/28 12:57:06;;;;;;;1.73;0.73;;;;;;;;;;5067313;28;20212;-59
2020/12/28 13:00:00;;;;;;;0.50;0.50;;;;;;;;;;5053842;28;20196;-60
2020/12/28 13:02:18;;;;;;;1.60;0.97;;;;;;;;;;5051866;28;20231;-60
2020/12/28 13:04:44;;;;;;;2.10;0.87;;;;;;;;;;5050892;28;20485;-58
2020/12/28 13:07:10;;;;;;;1.43;0.70;;;;;;;;;;5060069;28;20181;-59
2020/12/28 13:09:36;;;;;;;1.53;0.93;;;;;;;;;;5059373;28;20173;-61
2020/12/28 13:12:02;;;;;;;0.93;0.70;;;;;;;;;;5050149;28;20185;-60
2020/12/28 13:14:28;;;;;;;0.77;0.73;;;;;;;;;;5060044;28;20204;-59
2020/12/28 13:16:54;;;;;;;1.60;1.00;;;;;;;;;;5063628;28;20195;-59
2020/12/28 13:19:20;;;;;;;2.70;1.00;;;;;;;;;;5055345;28;20223;-60
2020/12/28 13:21:49;;;;;;;1.27;1.10;;;;;;;;;;5051706;28;20247;-61
2020/12/28 13:24:15;;;;;;;1.50;1.03;;;;;;;;;;5048715;28;20223;-59
2020/12/28 13:26:41;;;;;;;2.60;1.00;;;;;;;;;;5048974;28;20185;-59
2020/12/28 13:29:08;;;;;;;1.20;1.10;;;;;;;;;;5052264;28;20259;-59
2020/12/28 13:31:34;;;;;;;1.73;0.90;;;;;;;;;;5032459;28;20212;-60
2020/12/28 13:34:00;;;;;;;2.77;1.20;;;;;;;;;;5054364;28;20173;-60
2020/12/28 13:36:33;;;;;;;3.13;1.10;;;;;;;;;;5059628;28;20172;-60
2020/12/28 13:38:59;;;;;;;1.00;1.00;;;;;;;;;;5015060;28;20598;-60
2020/12/28 13:41:25;;;;;;;2.50;1.27;;;;;;;;;;5042256;28;20487;-60
2020/12/28 13:43:52;;;;;;;2.67;1.07;;;;;;;;;;5061313;28;20177;-60
2020/12/28 13:46:18;;;;;;;2.27;1.30;;;;;;;;;;5031518;28;20173;-58
2020/12/28 13:48:44;;;;;;;1.40;1.13;;;;;;;;;;5031599;28;20181;-60
2020/12/28 13:51:10;;;;;;;1.30;1.20;;;;;;;;;;5069404;28;20740;-59
2020/12/28 13:53:36;;;;;;;2.13;1.60;;;;;;;;;;5057819;28;20180;-60
2020/12/28 13:56:03;;;;;;;1.70;1.10;;;;;;;;;;5049932;28;20537;-58
2020/12/28 13:58:29;;;;;;;1.20;1.10;;;;;;;;;;5050011;28;20234;-61
2020/12/28 14:00:55;;;;;;;1.40;1.10;;;;;;;;;;5060388;28;20182;-60
2020/12/28 14:03:21;;;;;;;6.10;1.37;;;;;;;;;;5049215;28;20212;-60
2020/12/28 14:05:47;;;;;;;1.57;1.30;;;;;;;;;;5055231;28;20181;-59
2020/12/28 14:08:14;;;;;;;2.17;1.30;;;;;;;;;;5049597;28;20612;-59
2020/12/28 14:10:40;;;;;;;1.47;1.17;;;;;;;;;;5070490;28;20172;-59
2020/12/28 14:13:06;;;;;;;3.33;1.10;;;;;;;;;;5057823;28;20234;-61
2020/12/28 14:15:32;;;;;;;1.50;1.10;;;;;;;;;;5059081;28;20194;-59
2020/12/28 14:17:58;;;;;;;1.17;0.93;;;;;;;;;;5058955;28;20272;-58
2020/12/28 14:20:24;;;;;;;1.13;1.03;;;;;;;;;;5065840;28;20196;-59
2020/12/28 14:22:50;;;;;;;1.30;1.20;;;;;;;;;;5067860;28;20574;-59
2020/12/28 14:25:16;;;;;;;2.07;1.83;;;;;;;;;;5065889;28;20177;-62
2020/12/28 14:27:42;;;;;;;1.50;0.90;;;;;;;;;;5059726;28;20203;-60
2020/12/28 14:30:08;;;;;;;1.50;1.17;;;;;;;;;;5053651;28;20193;-60
2020/12/28 14:32:34;;;;;;;2.57;0.97;;;;;;;;;;5055313;28;20194;-59
2020/12/28 14:35:00;;;;;;;1.20;1.00;;;;;;;;;;5057913;28;20632;-58
2020/12/28 14:37:26;;;;;;;1.60;1.03;;;;;;;;;;5069421;28;20188;-60
2020/12/28 14:39:52;;;;;;;1.37;1.27;;;;;;;;;;5062559;28;20214;-59
2020/12/28 14:42:18;;;;;;;3.43;1.40;;;;;;;;;;5063437;28;20197;-59
2020/12/28 14:44:45;;;;;;;2.20;0.90;;;;;;;;;;5035463;28;20173;-59